Time;durP1;ratioP1;P1;durP2;ratioP2;P2;SDS_P1;SDS_P2;PMS_P1;PMS_P2;Temp;Humidity;BMP_temperature;BMP_pressure;BME280_temperature;BME280_humidity;BME280_pressure;Samples;Min_cycle;Max_cycle;Signal;HPM_P1;HPM_P2
2023/07/20 00:00:58;;;;;;;;;;;;;;;15.85;69.87;99717.33;104135;278;96507;-55
2023/07/20 00:03:39;;;;;;;4.80;2.90;;;;;;;15.92;70.04;99715.89;104105;278;118302;-54
2023/07/20 00:06:13;;;;;;;6.60;3.20;;;;;;;15.96;69.98;99707.02;104105;278;104378;-52
2023/07/20 00:08:47;;;;;;;8.60;3.00;;;;;;;15.92;70.11;99703.58;104497;278;114531;-52
2023/07/20 00:11:21;;;;;;;4.10;3.00;;;;;;;15.93;70.35;99705.98;104096;278;95200;-53
2023/07/20 00:13:55;;;;;;;3.90;2.90;;;;;;;15.93;70.35;99711.51;104123;278;97620;-53
2023/07/20 00:16:30;;;;;;;5.10;3.10;;;;;;;15.93;70.54;99714.28;104097;278;120652;-52
2023/07/20 00:19:04;;;;;;;5.30;3.30;;;;;;;15.94;70.82;99725.45;104542;278;106205;-52
2023/07/20 00:21:40;;;;;;;4.80;2.80;;;;;;;15.98;70.90;99732.64;104527;278;114374;-53
2023/07/20 00:24:15;;;;;;;4.80;2.80;;;;;;;15.99;71.07;99736.31;104098;278;93972;-53
2023/07/20 00:26:47;;;;;;;;;;;;;;;16.00;71.26;99724.60;104121;278;97163;-56
2023/07/20 00:29:21;;;;;;;6.10;3.30;;;;;;;15.95;71.26;99718.71;104122;278;119842;-56
2023/07/20 00:31:56;;;;;;;5.10;2.90;;;;;;;15.89;71.45;99710.60;104564;278;104937;-55
2023/07/20 00:34:30;;;;;;;5.20;3.30;;;;;;;15.89;71.65;99705.36;104104;278;112183;-55
2023/07/20 00:37:02;;;;;;;;;;;;;;;15.90;71.57;99698.64;104104;278;94283;-52
2023/07/20 00:39:37;;;;;;;5.40;3.00;;;;;;;15.90;71.53;99695.96;104110;278;97322;-52
2023/07/20 00:42:11;;;;;;;4.20;2.60;;;;;;;15.93;71.63;99702.95;104550;278;119871;-53
2023/07/20 00:44:43;;;;;;;;;;;;;;;15.95;71.54;99704.02;104132;278;105488;-55
2023/07/20 00:47:18;;;;;;;3.70;3.00;;;;;;;15.91;71.57;99706.61;104101;278;114924;-55
2023/07/20 00:49:53;;;;;;;5.70;3.30;;;;;;;15.93;71.42;99705.23;104086;278;94115;-55
2023/07/20 00:52:28;;;;;;;6.30;3.00;;;;;;;15.93;71.39;99699.35;104095;278;97850;-55
2023/07/20 00:55:03;;;;;;;7.10;3.50;;;;;;;15.95;71.38;99697.85;104094;278;121097;-55
2023/07/20 00:57:38;;;;;;;5.80;3.40;;;;;;;15.94;71.26;99700.92;104077;278;104634;-55
2023/07/20 01:00:12;;;;;;;;;;;;;;;15.94;71.33;99703.62;104102;278;114414;-53
2023/07/20 01:02:46;;;;;;;4.50;3.40;;;;;;;15.92;71.38;99704.08;104073;278;96656;-53
2023/07/20 01:05:21;;;;;;;4.60;3.40;;;;;;;15.93;71.24;99701.96;104130;278;98176;-53
2023/07/20 01:08:00;;;;;;;;;;;;;;;15.91;71.10;99706.55;104580;278;119602;-53
2023/07/20 01:10:41;;;;;;;5.50;3.20;;;;;;;15.90;71.19;99705.33;104117;278;105852;-53
2023/07/20 01:13:19;;;;;;;4.60;3.20;;;;;;;15.86;71.26;99700.67;104126;278;114289;-53
2023/07/20 01:15:57;;;;;;;5.60;3.10;;;;;;;15.81;71.59;99696.63;104106;278;96618;-56
2023/07/20 01:18:31;;;;;;;4.70;3.10;;;;;;;15.72;71.93;99690.67;104142;278;96895;-56
2023/07/20 01:21:15;;;;;;;4.70;2.90;;;;;;;15.68;71.90;99699.79;104142;278;119568;-56
2023/07/20 01:24:23;;;;;;;9.50;3.80;;;;;;;15.58;71.99;99713.05;104118;278;104772;-56
2023/07/20 01:27:35;;;;;;;5.00;3.00;;;;;;;15.49;72.45;99712.10;104545;278;113800;-53
2023/07/20 01:30:36;;;;;;;5.80;3.10;;;;;;;15.47;72.57;99709.23;104095;278;97137;-52
2023/07/20 01:33:12;;;;;;;5.70;3.30;;;;;;;15.45;72.74;99699.30;104092;278;98029;-53
2023/07/20 01:35:50;;;;;;;5.10;3.20;;;;;;;15.39;73.12;99693.61;104534;278;119083;-57
2023/07/20 01:38:25;;;;;;;3.80;3.00;;;;;;;15.40;73.03;99698.95;104079;278;106125;-57
2023/07/20 01:41:00;;;;;;;5.50;3.30;;;;;;;15.38;73.48;99694.85;104090;278;114840;-56
2023/07/20 01:43:35;;;;;;;4.50;3.60;;;;;;;15.40;73.54;99695.60;104084;278;94003;-56
2023/07/20 01:46:09;;;;;;;8.20;4.30;;;;;;;15.53;73.52;99695.23;103924;278;100131;-52
2023/07/20 01:48:44;;;;;;;8.10;3.70;;;;;;;15.62;73.43;99704.05;104128;278;119179;-52
2023/07/20 01:51:17;;;;;;;;;;;;;;;15.69;73.69;99702.91;104116;278;104130;-52
2023/07/20 01:53:51;;;;;;;7.80;3.70;;;;;;;15.71;73.72;99704.50;104515;279;114505;-52
2023/07/20 01:56:25;;;;;;;5.00;3.30;;;;;;;15.83;73.64;99704.85;104103;278;96496;-52
2023/07/20 01:58:59;;;;;;;4.70;2.90;;;;;;;15.80;73.94;99708.30;104105;278;95356;-52
2023/07/20 02:01:33;;;;;;;6.30;3.40;;;;;;;15.81;73.80;99702.33;104068;278;119564;-53
2023/07/20 02:04:08;;;;;;;6.20;3.50;;;;;;;15.85;73.85;99712.73;104094;278;104753;-53
2023/07/20 02:06:42;;;;;;;4.90;3.40;;;;;;;15.86;73.81;99719.73;104065;278;113227;-53
2023/07/20 02:09:16;;;;;;;6.60;3.60;;;;;;;15.87;73.95;99716.92;104102;278;94381;-53
2023/07/20 02:11:50;;;;;;;6.20;3.60;;;;;;;15.86;73.81;99711.58;104142;278;98219;-53
2023/07/20 02:14:24;;;;;;;5.90;3.70;;;;;;;15.85;74.07;99716.55;104560;278;120261;-53
2023/07/20 02:16:59;;;;;;;4.90;3.20;;;;;;;15.84;73.90;99715.83;104087;278;104906;-52
2023/07/20 02:19:38;;;;;;;6.10;3.30;;;;;;;15.86;73.91;99718.20;104088;278;113116;-52
2023/07/20 02:22:12;;;;;;;6.10;3.10;;;;;;;15.86;73.97;99718.27;104078;278;95469;-56
2023/07/20 02:24:46;;;;;;;5.10;3.40;;;;;;;15.83;74.05;99717.23;104098;278;97471;-55
2023/07/20 02:27:21;;;;;;;5.00;3.30;;;;;;;15.85;74.14;99715.57;104079;278;120184;-55
2023/07/20 02:29:54;;;;;;;6.30;3.80;;;;;;;15.86;73.92;99708.52;104537;278;105838;-53
2023/07/20 02:32:28;;;;;;;5.50;3.10;;;;;;;15.83;74.18;99711.39;104087;278;115196;-53
2023/07/20 02:35:03;;;;;;;4.70;3.20;;;;;;;15.83;74.50;99711.39;104129;278;93769;-54
2023/07/20 02:37:37;;;;;;;4.80;3.40;;;;;;;15.82;74.50;99698.90;104571;278;97931;-54
2023/07/20 02:40:13;;;;;;;4.90;3.50;;;;;;;15.85;74.55;99696.67;104539;278;119999;-53
2023/07/20 02:42:47;;;;;;;3.40;2.90;;;;;;;15.85;74.51;99696.02;104090;278;104204;-53
2023/07/20 02:45:21;;;;;;;5.20;3.10;;;;;;;15.84;74.21;99692.39;104092;278;114112;-54
2023/07/20 02:47:55;;;;;;;4.90;2.90;;;;;;;15.82;74.02;99695.30;104536;278;97006;-53
2023/07/20 02:50:30;;;;;;;5.80;3.20;;;;;;;15.85;74.10;99689.80;104098;278;97236;-52
2023/07/20 02:53:04;;;;;;;5.10;2.90;;;;;;;15.85;74.12;99697.44;104525;278;120553;-53
2023/07/20 02:55:36;;;;;;;;;;;;;;;15.87;73.90;99703.21;104592;278;105836;-54
2023/07/20 02:58:11;;;;;;;5.40;3.40;;;;;;;15.82;74.09;99702.11;103927;278;113479;-54
2023/07/20 03:00:47;;;;;;;6.30;3.30;;;;;;;15.79;74.12;99699.77;104088;278;93208;-54
2023/07/20 03:03:21;;;;;;;4.50;3.60;;;;;;;15.83;74.26;99700.40;104096;278;96837;-54
2023/07/20 03:05:54;;;;;;;;;;;;;;;15.84;74.22;99706.63;104108;278;119420;-52
2023/07/20 03:08:28;;;;;;;4.10;2.90;;;;;;;15.87;74.20;99700.36;104078;278;104674;-52
2023/07/20 03:11:00;;;;;;;;;;;;;;;15.90;74.10;99708.39;103965;278;114464;-57
2023/07/20 03:13:34;;;;;;;6.80;3.20;;;;;;;15.89;74.34;99707.77;104073;278;96384;-57
2023/07/20 03:16:10;;;;;;;3.90;2.90;;;;;;;15.91;74.47;99709.06;104079;279;96198;-54
2023/07/20 03:18:45;;;;;;;4.60;3.00;;;;;;;15.90;74.66;99715.36;104502;278;120644;-54
2023/07/20 03:21:19;;;;;;;4.00;2.90;;;;;;;15.88;74.72;99718.37;104073;278;104115;-53
2023/07/20 03:23:53;;;;;;;4.70;3.30;;;;;;;15.91;74.84;99717.67;104528;278;113462;-53
2023/07/20 03:26:27;;;;;;;5.40;3.30;;;;;;;15.91;75.17;99722.08;104094;278;95318;-57
2023/07/20 03:29:01;;;;;;;4.60;2.90;;;;;;;15.89;75.46;99722.36;104591;278;95811;-57
2023/07/20 03:31:35;;;;;;;3.70;2.70;;;;;;;15.87;75.67;99722.16;104124;278;120369;-53
2023/07/20 03:34:10;;;;;;;5.30;3.60;;;;;;;15.83;75.96;99727.40;104092;278;104005;-53
2023/07/20 03:36:44;;;;;;;5.30;3.40;;;;;;;15.89;76.15;99751.11;104141;279;112122;-56
2023/07/20 03:39:16;;;;;;;;;;;;;;;15.93;76.36;99753.71;104555;278;96759;-56
2023/07/20 03:41:50;;;;;;;4.40;2.80;;;;;;;15.92;76.88;99767.44;104103;279;99279;-57
2023/07/20 03:44:24;;;;;;;5.50;3.20;;;;;;;15.96;77.14;99777.23;104530;278;120380;-57
2023/07/20 03:46:56;;;;;;;;;;;;;;;16.00;77.08;99781.80;104115;278;105087;-56
2023/07/20 03:49:31;;;;;;;5.80;3.80;;;;;;;15.98;77.32;99772.51;104511;279;112541;-56
2023/07/20 03:52:04;;;;;;;;;;;;;;;16.02;77.31;99769.48;104104;271;95027;-56
2023/07/20 03:54:38;;;;;;;6.40;3.40;;;;;;;16.04;77.40;99772.35;104546;278;98220;-55
2023/07/20 03:57:11;;;;;;;;;;;;;;;16.05;77.33;99771.56;104091;278;120620;-55
2023/07/20 03:59:49;;;;;;;4.80;3.40;;;;;;;15.96;77.62;99769.77;104524;278;104191;-56
2023/07/20 04:02:23;;;;;;;3.70;3.30;;;;;;;15.91;77.51;99776.73;104517;278;113160;-58
2023/07/20 04:04:57;;;;;;;5.90;3.60;;;;;;;15.93;77.84;99782.64;104543;275;96413;-57
2023/07/20 04:07:31;;;;;;;3.80;3.00;;;;;;;15.99;77.89;99781.24;104117;278;97082;-58
2023/07/20 04:10:06;;;;;;;5.50;3.50;;;;;;;16.00;78.18;99786.61;104100;279;119983;-56
2023/07/20 04:12:40;;;;;;;6.70;3.50;;;;;;;15.98;78.33;99789.35;104095;278;105101;-56
2023/07/20 04:15:34;;;;;;;4.80;3.50;;;;;;;15.96;78.43;99800.80;104586;278;113924;-54
2023/07/20 04:18:08;;;;;;;5.20;3.70;;;;;;;15.91;78.81;99801.75;104568;278;95067;-54
2023/07/20 04:20:42;;;;;;;6.70;4.10;;;;;;;15.93;79.05;99797.09;104597;278;96582;-57
2023/07/20 04:23:14;;;;;;;;;;;;;;;15.97;79.34;99797.71;104532;278;121091;-57
2023/07/20 04:25:48;;;;;;;5.20;3.60;;;;;;;15.95;79.52;99806.02;104106;278;104892;-58
2023/07/20 04:28:22;;;;;;;5.40;4.10;;;;;;;16.03;79.68;99815.89;104543;278;113706;-58
2023/07/20 04:31:10;;;;;;;4.80;3.70;;;;;;;16.14;79.75;99828.45;104089;278;96124;-57
2023/07/20 04:33:44;;;;;;;5.10;4.10;;;;;;;16.22;79.46;99834.19;104548;278;97654;-57
2023/07/20 04:36:19;;;;;;;6.10;3.70;;;;;;;16.27;79.48;99836.64;104121;278;119635;-57
2023/07/20 04:38:53;;;;;;;5.00;3.90;;;;;;;16.30;79.63;99834.19;104073;278;104777;-57
2023/07/20 04:41:27;;;;;;;4.40;3.50;;;;;;;16.27;79.97;99831.40;104095;278;114932;-53
2023/07/20 04:44:01;;;;;;;4.40;3.70;;;;;;;16.29;79.87;99837.65;104081;278;96636;-53
2023/07/20 04:46:35;;;;;;;6.40;4.40;;;;;;;16.30;79.69;99840.39;104113;278;96284;-54
2023/07/20 04:49:09;;;;;;;5.10;4.10;;;;;;;16.32;79.89;99838.38;104115;278;120493;-54
2023/07/20 04:51:41;;;;;;;;;;;;;;;16.40;79.95;99839.32;104141;278;105417;-54
2023/07/20 04:54:16;;;;;;;4.50;4.10;;;;;;;16.42;80.28;99843.64;104118;278;115107;-53
2023/07/20 04:56:50;;;;;;;6.10;3.70;;;;;;;16.56;80.10;99846.05;104555;278;97186;-54
2023/07/20 04:59:24;;;;;;;6.40;4.10;;;;;;;16.61;80.11;99842.45;104558;278;97642;-54
2023/07/20 05:01:58;;;;;;;5.80;4.20;;;;;;;16.63;80.04;99840.31;104082;278;121361;-57
2023/07/20 05:04:33;;;;;;;6.20;4.10;;;;;;;16.72;80.02;99838.96;104098;278;104170;-57
2023/07/20 05:07:07;;;;;;;5.40;4.00;;;;;;;16.77;80.03;99840.99;104096;279;113256;-56
2023/07/20 05:09:40;;;;;;;;;;;;;;;16.86;79.79;99842.63;104117;271;95001;-56
2023/07/20 05:12:13;;;;;;;5.40;4.10;;;;;;;16.98;79.77;99844.50;104114;278;97513;-56
2023/07/20 05:14:47;;;;;;;6.60;4.10;;;;;;;17.11;79.81;99840.64;104099;278;118711;-55
2023/07/20 05:17:21;;;;;;;5.60;4.00;;;;;;;17.20;79.56;99838.50;103708;278;523975;-54
2023/07/20 05:19:56;;;;;;;5.90;4.10;;;;;;;17.30;79.61;99836.23;104013;279;114094;-57
2023/07/20 05:22:33;;;;;;;7.70;4.30;;;;;;;17.36;79.90;99843.49;104560;278;96504;-57
2023/07/20 05:25:13;;;;;;;6.00;4.70;;;;;;;17.44;79.69;99844.23;104570;278;97530;-56
2023/07/20 05:27:47;;;;;;;7.10;4.40;;;;;;;17.48;79.39;99840.42;103948;278;119872;-56
2023/07/20 05:30:21;;;;;;;5.80;4.20;;;;;;;17.48;79.23;99838.29;104100;278;106020;-57
2023/07/20 05:32:55;;;;;;;7.40;4.20;;;;;;;17.53;78.98;99834.02;104100;278;113648;-57
2023/07/20 05:35:30;;;;;;;6.30;4.40;;;;;;;17.63;79.15;99835.45;104088;278;96237;-54
2023/07/20 05:38:06;;;;;;;6.20;4.50;;;;;;;17.71;78.87;99833.12;103981;279;99012;-53
2023/07/20 05:40:43;;;;;;;4.70;4.10;;;;;;;17.71;78.63;99831.21;104082;278;120480;-60
2023/07/20 05:43:18;;;;;;;6.30;4.40;;;;;;;17.60;78.48;99831.02;104571;278;106178;-59
2023/07/20 05:45:52;;;;;;;6.00;4.70;;;;;;;17.41;78.40;99832.92;104118;278;115044;-62
2023/07/20 05:48:30;;;;;;;6.60;4.30;;;;;;;17.34;78.40;99833.96;104079;278;96932;-59
2023/07/20 05:51:07;;;;;;;5.30;3.90;;;;;;;17.37;78.52;99831.92;104117;278;97734;-63
2023/07/20 05:53:42;;;;;;;6.20;4.30;;;;;;;17.44;78.50;99826.58;104110;278;119094;-61
2023/07/20 05:56:16;;;;;;;5.20;3.80;;;;;;;17.51;78.70;99826.33;104097;278;105623;-61
2023/07/20 05:58:50;;;;;;;6.80;4.50;;;;;;;17.51;78.74;99826.16;104075;278;113062;-55
2023/07/20 06:01:28;;;;;;;7.10;5.00;;;;;;;17.45;78.74;99826.59;104091;278;96345;-52
2023/07/20 06:04:03;;;;;;;5.80;4.20;;;;;;;17.43;78.61;99825.47;104079;278;98365;-52
2023/07/20 06:06:37;;;;;;;6.30;4.20;;;;;;;17.45;78.60;99829.92;104565;278;120997;-53
2023/07/20 06:09:11;;;;;;;6.00;4.10;;;;;;;17.48;78.54;99827.69;103928;278;107673;-53
2023/07/20 06:11:46;;;;;;;4.70;4.00;;;;;;;17.55;78.31;99827.14;104545;278;113382;-56
2023/07/20 06:14:21;;;;;;;6.20;4.30;;;;;;;17.47;78.57;99825.51;104100;278;95504;-56
2023/07/20 06:16:55;;;;;;;6.30;3.70;;;;;;;17.38;78.63;99821.77;104147;278;97728;-53
2023/07/20 06:19:29;;;;;;;6.60;4.20;;;;;;;17.35;78.64;99819.00;104097;278;120265;-52
2023/07/20 06:22:04;;;;;;;9.60;5.10;;;;;;;17.41;78.65;99817.08;104586;278;106050;-53
2023/07/20 06:24:39;;;;;;;5.40;4.40;;;;;;;17.46;78.48;99819.95;104096;278;113095;-53
2023/07/20 06:27:14;;;;;;;5.90;4.30;;;;;;;17.43;78.46;99818.32;104122;278;95734;-52
2023/07/20 06:29:48;;;;;;;6.80;4.40;;;;;;;17.40;78.67;99823.11;104121;278;96746;-53
2023/07/20 06:32:28;;;;;;;6.20;4.10;;;;;;;17.43;78.71;99824.92;104104;278;120002;-54
2023/07/20 06:35:04;;;;;;;6.50;4.80;;;;;;;17.48;78.76;99821.57;104021;278;104926;-53
2023/07/20 06:37:38;;;;;;;5.90;4.30;;;;;;;17.57;78.82;99824.10;104084;278;114768;-54
2023/07/20 06:40:15;;;;;;;6.20;4.10;;;;;;;17.60;78.73;99822.95;104081;278;95182;-53
2023/07/20 06:42:50;;;;;;;6.50;4.50;;;;;;;17.57;78.93;99821.21;104125;278;97551;-53
2023/07/20 06:45:27;;;;;;;5.70;4.20;;;;;;;17.59;78.86;99817.25;104096;278;119857;-56
2023/07/20 06:48:03;;;;;;;6.70;4.30;;;;;;;17.60;78.74;99813.09;104079;278;104002;-55
2023/07/20 06:50:37;;;;;;;7.20;4.90;;;;;;;17.68;78.86;99806.46;104094;278;114410;-56
2023/07/20 06:53:12;;;;;;;6.80;5.10;;;;;;;17.73;78.56;99806.64;104054;278;96271;-56
2023/07/20 06:55:48;;;;;;;6.10;5.40;;;;;;;17.72;78.59;99813.67;104115;271;97866;-53
2023/07/20 06:58:22;;;;;;;7.10;4.90;;;;;;;17.66;78.31;99811.25;104095;278;119048;-53
2023/07/20 07:00:54;;;;;;;;;;;;;;;17.60;78.22;99813.06;104158;278;105481;-54
2023/07/20 07:03:29;;;;;;;6.00;4.30;;;;;;;17.55;78.12;99810.14;104117;278;114613;-54
2023/07/20 07:06:07;;;;;;;6.30;4.40;;;;;;;17.49;78.15;99809.15;104103;278;95687;-54
2023/07/20 07:08:45;;;;;;;7.10;4.80;;;;;;;17.43;77.84;99808.81;104132;278;97300;-52
2023/07/20 07:11:20;;;;;;;6.90;5.00;;;;;;;17.45;78.10;99811.02;104586;267;120445;-55
2023/07/20 07:13:54;;;;;;;6.90;4.90;;;;;;;17.43;77.95;99811.48;103954;279;104308;-53
2023/07/20 07:16:29;;;;;;;5.80;4.40;;;;;;;17.39;78.12;99815.85;104543;278;114396;-52
2023/07/20 07:19:03;;;;;;;5.80;4.30;;;;;;;17.35;77.92;99820.92;104096;278;96960;-52
2023/07/20 07:21:37;;;;;;;5.40;4.50;;;;;;;17.38;77.96;99823.96;104552;278;97486;-53
2023/07/20 07:24:11;;;;;;;6.50;4.20;;;;;;;17.36;77.87;99824.31;104097;278;118102;-53
2023/07/20 07:26:45;;;;;;;5.30;4.00;;;;;;;17.31;77.96;99827.77;104557;278;103424;-54
2023/07/20 07:29:19;;;;;;;5.40;3.60;;;;;;;17.27;78.16;99828.97;104081;278;114834;-54
2023/07/20 07:31:53;;;;;;;6.60;3.80;;;;;;;17.26;77.87;99838.67;104098;279;95996;-56
2023/07/20 07:34:26;;;;;;;;;;;;;;;17.20;77.96;99836.97;104113;278;97965;-56
2023/07/20 07:37:00;;;;;;;7.00;4.40;;;;;;;17.13;77.96;99841.31;104075;278;120989;-56
2023/07/20 07:39:36;;;;;;;8.30;4.40;;;;;;;17.06;78.32;99852.19;104101;278;105417;-56
2023/07/20 07:42:11;;;;;;;5.30;4.00;;;;;;;17.02;78.32;99858.45;104105;278;114467;-54
2023/07/20 07:44:45;;;;;;;4.90;4.20;;;;;;;16.98;78.47;99865.41;104071;278;96909;-52
2023/07/20 07:47:19;;;;;;;7.80;4.20;;;;;;;16.99;78.56;99863.84;104146;278;96753;-52
2023/07/20 07:49:53;;;;;;;4.90;3.70;;;;;;;17.08;78.69;99866.61;104068;282;120102;-55
2023/07/20 07:52:27;;;;;;;5.70;4.00;;;;;;;17.10;79.00;99873.63;104114;278;104661;-55
2023/07/20 07:55:01;;;;;;;6.30;3.80;;;;;;;17.06;78.85;99875.60;104113;278;112465;-56
2023/07/20 07:57:34;;;;;;;4.30;3.80;;;;;;;17.02;78.77;99876.01;104094;278;97062;-56
2023/07/20 08:00:14;;;;;;;4.50;3.70;;;;;;;16.99;78.76;99874.84;104104;278;95610;-54
2023/07/20 08:02:48;;;;;;;6.10;3.40;;;;;;;16.96;78.93;99879.65;104078;278;120092;-55
2023/07/20 08:05:22;;;;;;;5.20;3.80;;;;;;;16.94;78.88;99883.48;104525;279;104861;-52
2023/07/20 08:07:56;;;;;;;5.80;3.60;;;;;;;16.90;79.01;99882.64;103941;279;114659;-53
2023/07/20 08:10:31;;;;;;;5.90;3.80;;;;;;;16.90;78.98;99884.18;104540;278;96486;-53
2023/07/20 08:13:06;;;;;;;6.70;4.00;;;;;;;16.87;79.04;99885.81;104087;278;98202;-53
2023/07/20 08:15:40;;;;;;;6.40;4.00;;;;;;;16.86;79.25;99884.87;104123;278;119952;-55
2023/07/20 08:18:14;;;;;;;5.90;3.90;;;;;;;16.87;79.46;99880.62;104107;278;104510;-55
2023/07/20 08:20:50;;;;;;;7.20;4.50;;;;;;;16.84;79.61;99886.23;104095;278;114036;-55
2023/07/20 08:23:24;;;;;;;5.00;4.00;;;;;;;16.93;79.64;99884.58;103970;279;95951;-55
2023/07/20 08:25:57;;;;;;;5.00;4.00;;;;;;;17.04;79.70;99882.81;104153;278;96941;-61
2023/07/20 08:28:31;;;;;;;5.90;4.50;;;;;;;17.09;79.60;99884.39;104120;278;119987;-57
2023/07/20 08:31:08;;;;;;;5.20;4.70;;;;;;;17.10;79.66;99891.02;104125;278;105330;-53
2023/07/20 08:33:43;;;;;;;6.40;4.60;;;;;;;17.06;79.92;99898.52;104101;278;114243;-53
2023/07/20 08:36:17;;;;;;;5.40;4.10;;;;;;;17.01;80.16;99898.64;104555;278;95409;-57
2023/07/20 08:38:51;;;;;;;5.90;4.00;;;;;;;17.06;80.55;99901.91;104589;278;96349;-56
2023/07/20 08:41:25;;;;;;;6.50;4.70;;;;;;;17.22;80.72;99901.42;104121;278;118755;-57
2023/07/20 08:43:59;;;;;;;7.30;4.30;;;;;;;17.34;80.91;99903.52;104572;290;106090;-55
2023/07/20 08:46:34;;;;;;;6.30;4.50;;;;;;;17.47;80.94;99902.56;104081;278;113855;-54
2023/07/20 08:49:09;;;;;;;6.20;4.90;;;;;;;17.60;81.14;99904.35;104550;278;97204;-59
2023/07/20 08:51:44;;;;;;;9.00;5.90;;;;;;;17.67;80.90;99910.63;104580;278;97073;-53
2023/07/20 08:54:19;;;;;;;6.40;4.40;;;;;;;17.74;80.88;99911.30;104117;278;120120;-53
2023/07/20 08:56:55;;;;;;;6.00;4.80;;;;;;;17.87;81.14;99908.40;104551;278;104773;-53
2023/07/20 08:59:31;;;;;;;4.90;4.30;;;;;;;18.05;81.17;99908.58;104067;279;114473;-56
2023/07/20 09:02:09;;;;;;;6.30;4.90;;;;;;;18.27;80.87;99916.15;104058;278;95624;-53
2023/07/20 09:04:43;;;;;;;5.90;3.60;;;;;;;18.42;80.70;99918.48;104153;278;97803;-53
2023/07/20 09:07:17;;;;;;;5.90;3.90;;;;;;;18.51;80.57;99922.25;104562;278;118594;-53
2023/07/20 09:09:52;;;;;;;5.90;3.80;;;;;;;18.58;80.26;99917.88;104121;278;105531;-54
2023/07/20 09:12:26;;;;;;;4.50;3.40;;;;;;;18.71;80.15;99922.08;104549;278;114851;-54
2023/07/20 09:15:02;;;;;;;;;;;;;;;18.78;79.92;99919.88;104572;278;96819;-52
2023/07/20 09:17:37;;;;;;;4.20;3.00;;;;;;;18.86;79.40;99925.85;104148;278;97134;-52
2023/07/20 09:20:13;;;;;;;7.30;3.70;;;;;;;18.98;79.33;99922.42;104574;282;120243;-54
2023/07/20 09:22:47;;;;;;;6.10;3.60;;;;;;;19.07;79.35;99923.73;104113;278;104947;-54
2023/07/20 09:25:22;;;;;;;5.30;3.70;;;;;;;19.18;79.07;99918.02;104133;278;114028;-56
2023/07/20 09:27:56;;;;;;;4.50;2.80;;;;;;;19.37;79.03;99919.65;104110;278;95897;-54
2023/07/20 09:30:30;;;;;;;3.30;2.80;;;;;;;19.46;78.98;99921.52;104108;278;96785;-56
2023/07/20 09:33:03;;;;;;;;;;;;;;;19.53;78.42;99920.88;104557;278;120738;-56
2023/07/20 09:35:37;;;;;;;3.40;3.00;;;;;;;19.52;77.94;99924.74;104109;278;104029;-55
2023/07/20 09:38:11;;;;;;;4.40;2.80;;;;;;;19.61;77.58;99922.20;104095;278;114429;-53
2023/07/20 09:40:45;;;;;;;3.40;2.30;;;;;;;19.67;77.10;99919.90;104109;278;92731;-56
2023/07/20 09:43:20;;;;;;;4.40;2.60;;;;;;;19.78;76.51;99919.25;104113;278;97578;-55
2023/07/20 09:46:00;;;;;;;3.80;2.30;;;;;;;19.90;76.35;99916.60;103962;279;119612;-55
2023/07/20 09:48:34;;;;;;;3.70;2.60;;;;;;;20.11;76.13;99916.16;104109;278;106160;-55
2023/07/20 09:51:10;;;;;;;4.20;2.10;;;;;;;20.29;75.84;99913.24;104097;278;114067;-52
2023/07/20 09:53:44;;;;;;;5.20;2.90;;;;;;;20.46;75.26;99915.05;104104;278;96539;-55
2023/07/20 09:56:21;;;;;;;3.40;2.20;;;;;;;20.48;74.90;99914.45;104085;278;97920;-56
2023/07/20 09:58:55;;;;;;;3.80;2.40;;;;;;;20.47;74.89;99917.69;104106;278;121051;-56
2023/07/20 10:01:30;;;;;;;4.40;2.70;;;;;;;20.51;74.83;99921.77;104591;278;104953;-56
2023/07/20 10:04:08;;;;;;;2.60;1.90;;;;;;;20.44;74.29;99925.09;103964;279;114266;-56
2023/07/20 10:06:48;;;;;;;3.30;2.20;;;;;;;20.38;73.77;99919.94;104566;278;92343;-56
2023/07/20 10:09:23;;;;;;;3.40;2.00;;;;;;;20.29;73.69;99916.92;104163;278;97562;-56
2023/07/20 10:12:00;;;;;;;2.50;1.90;;;;;;;20.24;73.77;99918.14;104117;278;119468;-53
2023/07/20 10:14:41;;;;;;;3.90;1.90;;;;;;;20.23;74.18;99914.34;104125;278;105498;-53
2023/07/20 10:17:18;;;;;;;4.50;1.90;;;;;;;20.24;73.52;99916.33;104080;278;113472;-54
2023/07/20 10:19:57;;;;;;;4.40;2.10;;;;;;;20.16;73.24;99913.23;104102;278;97228;-53
2023/07/20 10:22:36;;;;;;;3.30;2.20;;;;;;;20.12;73.58;99913.70;104121;278;97667;-52
2023/07/20 10:25:11;;;;;;;3.60;2.20;;;;;;;20.14;73.96;99913.16;104113;278;120501;-52
2023/07/20 10:27:45;;;;;;;3.10;2.20;;;;;;;20.14;73.70;99915.41;104103;278;105017;-52
2023/07/20 10:30:21;;;;;;;3.80;2.20;;;;;;;20.13;73.71;99916.77;104548;278;112902;-56
2023/07/20 10:32:55;;;;;;;4.30;2.10;;;;;;;20.21;73.93;99911.40;104548;278;94612;-56
2023/07/20 10:35:29;;;;;;;4.40;2.80;;;;;;;20.17;73.94;99916.53;103965;278;97962;-54
2023/07/20 10:38:06;;;;;;;5.30;2.80;;;;;;;20.37;74.19;99913.77;104073;278;120182;-53
2023/07/20 10:40:42;;;;;;;3.80;2.40;;;;;;;20.54;74.16;99910.16;104550;278;105456;-53
2023/07/20 10:43:22;;;;;;;3.70;2.30;;;;;;;20.63;73.66;99909.77;104510;278;114959;-53
2023/07/20 10:45:59;;;;;;;3.50;2.30;;;;;;;20.99;73.39;99914.16;104113;278;94707;-57
2023/07/20 10:48:34;;;;;;;3.20;2.30;;;;;;;21.62;72.61;99907.13;104126;278;97590;-57
2023/07/20 10:51:23;;;;;;;3.60;2.60;;;;;;;22.04;71.84;99907.83;104580;278;121152;-53
2023/07/20 10:53:58;;;;;;;2.50;1.90;;;;;;;22.32;71.13;99901.84;104096;278;105485;-53
2023/07/20 10:56:34;;;;;;;3.20;1.90;;;;;;;22.37;70.40;99896.16;103933;279;116667;-57
2023/07/20 10:59:21;;;;;;;3.50;2.10;;;;;;;22.58;70.24;99893.03;104133;278;94757;-57
2023/07/20 11:02:01;;;;;;;3.90;2.70;;;;;;;22.51;69.43;99896.24;104147;275;97980;-55
2023/07/20 11:04:45;;;;;;;3.40;2.90;;;;;;;22.56;69.13;99895.84;104076;278;120340;-54
2023/07/20 11:07:40;;;;;;;3.30;2.30;;;;;;;22.56;68.57;99899.38;104094;278;104237;-56
2023/07/20 11:10:22;;;;;;;3.70;2.20;;;;;;;22.36;68.07;99899.42;104099;278;113115;-53
2023/07/20 11:13:25;;;;;;;3.00;2.10;;;;;;;22.25;67.78;99895.60;104105;278;94158;-53
2023/07/20 11:16:08;;;;;;;2.70;2.10;;;;;;;22.10;67.67;99891.15;104556;278;96649;-52
2023/07/20 11:18:43;;;;;;;2.80;2.20;;;;;;;22.03;67.73;99893.48;104111;278;120364;-52
2023/07/20 11:21:18;;;;;;;2.80;2.00;;;;;;;21.94;67.13;99889.52;104119;278;103695;-53
2023/07/20 11:23:53;;;;;;;2.90;2.20;;;;;;;21.72;66.93;99892.63;104050;278;113641;-53
2023/07/20 11:26:28;;;;;;;3.00;2.10;;;;;;;21.67;67.47;99897.52;104132;278;95013;-52
2023/07/20 11:29:01;;;;;;;;;;;;;;;21.66;67.61;99893.11;104143;278;97757;-53
2023/07/20 11:31:38;;;;;;;2.30;2.10;;;;;;;21.91;67.59;99889.06;104138;278;120673;-56
2023/07/20 11:34:15;;;;;;;3.70;2.00;;;;;;;22.18;67.34;99885.15;104104;278;105714;-56
2023/07/20 11:36:52;;;;;;;2.50;2.10;;;;;;;22.40;67.27;99884.83;104118;278;114069;-53
2023/07/20 11:39:27;;;;;;;3.10;2.00;;;;;;;22.50;66.47;99876.10;104113;278;94055;-52
2023/07/20 11:42:02;;;;;;;2.40;1.90;;;;;;;22.48;66.22;99876.31;104118;278;96127;-57
2023/07/20 11:44:39;;;;;;;3.90;2.20;;;;;;;22.56;66.07;99873.66;104133;278;121812;-53
2023/07/20 11:47:14;;;;;;;3.00;2.00;;;;;;;22.85;66.18;99868.84;104088;278;104865;-55
2023/07/20 11:49:54;;;;;;;2.70;2.10;;;;;;;23.07;65.72;99874.23;104069;278;113132;-54
2023/07/20 11:52:28;;;;;;;4.30;2.20;;;;;;;23.28;65.15;99872.17;104113;278;94580;-53
2023/07/20 11:55:03;;;;;;;3.30;1.90;;;;;;;23.58;64.95;99864.55;104128;278;95449;-57
2023/07/20 11:57:38;;;;;;;1.90;1.60;;;;;;;23.66;64.00;99865.86;104139;278;120496;-57
2023/07/20 12:00:15;;;;;;;2.60;1.80;;;;;;;23.47;63.23;99867.90;104135;278;104613;-54
2023/07/20 12:02:50;;;;;;;2.40;1.60;;;;;;;23.65;63.53;99867.04;104114;278;112845;-54
2023/07/20 12:05:28;;;;;;;2.00;1.70;;;;;;;23.91;63.10;99865.93;104107;278;94852;-53
2023/07/20 12:08:04;;;;;;;2.40;1.60;;;;;;;23.83;62.32;99863.84;104117;278;98246;-54
2023/07/20 12:10:43;;;;;;;2.20;1.60;;;;;;;23.77;62.13;99862.23;104113;278;119915;-56
2023/07/20 12:13:18;;;;;;;2.30;1.60;;;;;;;23.62;62.38;99865.63;103943;279;105841;-52